createdAt,value
2022-12-23T00:00:08.942Z,3.35
2022-12-23T00:00:20.936Z,4.10
2022-12-23T00:00:32.935Z,4.22
2022-12-23T00:00:45.052Z,4.43
2022-12-23T00:01:01.995Z,7.78
2022-12-23T00:01:15.552Z,9.32
2022-12-23T00:01:28.138Z,7.10
2022-12-23T00:01:40.181Z,5.40
2022-12-23T00:01:57.236Z,6.03
2022-12-23T00:02:09.377Z,7.28
2022-12-23T00:02:21.592Z,7.35
2022-12-23T00:02:33.825Z,7.78
2022-12-23T00:02:46.334Z,8.43
2022-12-23T00:02:58.487Z,8.73
2022-12-23T00:03:10.651Z,7.10
2022-12-23T00:03:23.387Z,5.78
2022-12-23T00:03:35.698Z,5.10
2022-12-23T00:03:47.781Z,5.43
2022-12-23T00:03:59.806Z,6.57
2022-12-23T00:04:11.959Z,11.00
2022-12-23T00:04:24.063Z,11.57
2022-12-23T00:04:36.047Z,8.63
2022-12-23T00:04:47.988Z,6.38
2022-12-23T00:04:59.921Z,7.38
2022-12-23T00:05:12.402Z,8.10
2022-12-23T00:05:24.402Z,7.72
2022-12-23T00:05:39.760Z,8.55
2022-12-23T00:05:52.487Z,7.85
2022-12-23T00:06:12.155Z,6.15
2022-12-23T00:06:24.210Z,6.28
2022-12-23T00:06:36.161Z,6.70
2022-12-23T00:06:48.076Z,5.95
2022-12-23T00:06:59.968Z,4.78
2022-12-23T00:07:11.903Z,4.07
2022-12-23T00:07:23.887Z,4.50
2022-12-23T00:07:36.159Z,4.15
2022-12-23T00:07:48.144Z,4.53
2022-12-23T00:08:00.115Z,4.10
2022-12-23T00:08:12.073Z,3.55
2022-12-23T00:08:25.439Z,5.13
2022-12-23T00:08:37.769Z,6.20
2022-12-23T00:08:49.788Z,5.65
2022-12-23T00:09:01.745Z,4.25
2022-12-23T00:09:13.913Z,3.80
2022-12-23T00:09:25.884Z,4.65
2022-12-23T00:09:37.861Z,5.13
2022-12-23T00:09:49.853Z,4.75
2022-12-23T00:10:02.739Z,4.47
2022-12-23T00:10:14.703Z,4.22
2022-12-23T00:10:26.697Z,4.47
2022-12-23T00:10:39.836Z,5.05
2022-12-23T00:10:53.495Z,4.50
2022-12-23T00:11:13.194Z,5.05
2022-12-23T00:11:26.023Z,8.75
2022-12-23T00:11:57.874Z,7.22
2022-12-23T00:12:28.272Z,5.93
2022-12-23T00:12:58.567Z,4.65
2022-12-23T00:13:30.398Z,4.65
2022-12-23T00:14:01.239Z,5.50
2022-12-23T00:14:31.638Z,6.95
2022-12-23T00:15:01.991Z,6.13
2022-12-23T00:15:14.649Z,4.00
2022-12-23T00:15:26.677Z,3.60
2022-12-23T00:15:38.579Z,3.95
2022-12-23T00:15:50.534Z,5.20
2022-12-23T00:16:04.139Z,6.25
2022-12-23T00:16:16.559Z,6.60
2022-12-23T00:16:28.985Z,7.10
2022-12-23T00:16:41.057Z,6.60
2022-12-23T00:16:53.296Z,6.10
2022-12-23T00:17:17.564Z,4.70
2022-12-23T00:17:36.262Z,5.00
2022-12-23T00:17:48.285Z,9.48
2022-12-23T00:18:00.201Z,9.90
2022-12-23T00:18:12.161Z,9.05
2022-12-23T00:18:24.081Z,6.93
2022-12-23T00:18:36.504Z,8.80
2022-12-23T00:18:48.543Z,9.32
2022-12-23T00:19:00.645Z,10.38
2022-12-23T00:19:12.587Z,10.40
2022-12-23T00:19:24.615Z,10.10
2022-12-23T00:19:36.523Z,9.60
2022-12-23T00:19:48.543Z,9.02
2022-12-23T00:20:01.061Z,9.75
2022-12-23T00:20:14.925Z,10.20
2022-12-23T00:20:26.876Z,8.65
2022-12-23T00:20:38.905Z,7.30
2022-12-23T00:20:57.732Z,7.78
2022-12-23T00:21:12.859Z,8.85
2022-12-23T00:21:24.777Z,8.25
2022-12-23T00:21:36.863Z,7.78
2022-12-23T00:21:48.885Z,8.23
2022-12-23T00:22:00.892Z,6.07
2022-12-23T00:22:12.832Z,6.63
2022-12-23T00:22:44.924Z,6.32
2022-12-23T00:23:05.577Z,7.88
2022-12-23T00:23:17.513Z,10.65
2022-12-23T00:23:33.164Z,15.60
2022-12-23T00:23:47.831Z,16.60
2022-12-23T00:23:59.760Z,14.25
2022-12-23T00:24:12.121Z,13.73
2022-12-23T00:24:24.226Z,13.07
2022-12-23T00:24:36.168Z,12.05
2022-12-23T00:24:48.343Z,10.20
2022-12-23T00:25:00.304Z,10.20
2022-12-23T00:25:13.617Z,8.57
2022-12-23T00:25:41.491Z,6.13
2022-12-23T00:25:55.723Z,6.40
2022-12-23T00:26:12.652Z,5.78
2022-12-23T00:26:27.216Z,6.55
2022-12-23T00:26:39.152Z,7.35
2022-12-23T00:26:51.235Z,9.32
2022-12-23T00:27:03.180Z,9.90
2022-12-23T00:27:15.116Z,9.98
2022-12-23T00:27:27.113Z,10.35
2022-12-23T00:27:39.636Z,10.23
2022-12-23T00:28:01.380Z,9.70
2022-12-23T00:28:13.476Z,9.35
2022-12-23T00:28:27.513Z,11.27
2022-12-23T00:28:39.510Z,16.05
2022-12-23T00:28:52.059Z,13.95
2022-12-23T00:29:04.004Z,8.50
2022-12-23T00:29:15.950Z,7.45
2022-12-23T00:29:28.005Z,8.57
2022-12-23T00:29:40.000Z,11.85
2022-12-23T00:29:51.949Z,11.75
2022-12-23T00:30:05.990Z,10.07
2022-12-23T00:30:18.117Z,9.60
2022-12-23T00:30:30.107Z,11.10
2022-12-23T00:30:48.180Z,12.70
2022-12-23T00:31:07.388Z,12.10
2022-12-23T00:31:21.302Z,9.05
2022-12-23T00:31:33.397Z,8.82
2022-12-23T00:31:45.538Z,9.60
2022-12-23T00:31:57.640Z,9.25
2022-12-23T00:32:10.021Z,6.78
2022-12-23T00:32:22.021Z,6.38
2022-12-23T00:32:33.976Z,7.25
2022-12-23T00:32:45.901Z,8.32
2022-12-23T00:32:58.821Z,8.52
2022-12-23T00:33:10.714Z,9.07
2022-12-23T00:33:25.843Z,10.80
2022-12-23T00:33:40.685Z,12.40
2022-12-23T00:33:54.191Z,10.18
2022-12-23T00:34:06.172Z,11.65
2022-12-23T00:34:18.161Z,12.20
2022-12-23T00:34:30.125Z,9.82
2022-12-23T00:34:42.093Z,8.57
2022-12-23T00:34:54.031Z,7.57
2022-12-23T00:35:06.374Z,6.03
2022-12-23T00:35:18.305Z,5.80
2022-12-23T00:35:32.163Z,5.82
2022-12-23T00:35:45.187Z,5.45
2022-12-23T00:35:57.216Z,5.57
2022-12-23T00:36:17.989Z,12.55
2022-12-23T00:36:30.642Z,22.10
2022-12-23T00:36:43.052Z,18.15
2022-12-23T00:36:55.032Z,13.55
2022-12-23T00:37:07.001Z,10.32
2022-12-23T00:37:18.957Z,11.85
2022-12-23T00:37:31.254Z,13.07
2022-12-23T00:37:43.177Z,13.00
2022-12-23T00:37:55.103Z,12.73
2022-12-23T00:38:07.074Z,12.52
2022-12-23T00:38:38.979Z,12.93
2022-12-23T00:39:10.299Z,12.80
2022-12-23T00:39:40.606Z,12.40
2022-12-23T00:40:11.042Z,18.08
2022-12-23T00:40:41.375Z,10.65
2022-12-23T00:41:11.816Z,11.18
2022-12-23T00:41:42.632Z,8.30
2022-12-23T00:42:13.016Z,8.35
2022-12-23T00:42:43.446Z,8.73
2022-12-23T00:42:55.478Z,8.27
2022-12-23T00:43:07.579Z,9.13
2022-12-23T00:43:19.546Z,9.00
2022-12-23T00:43:31.482Z,8.40
2022-12-23T00:43:43.365Z,8.90
2022-12-23T00:43:55.401Z,10.30
2022-12-23T00:44:07.312Z,10.15
2022-12-23T00:44:19.350Z,9.13
2022-12-23T00:44:31.596Z,11.35
2022-12-23T00:44:43.637Z,9.32
2022-12-23T00:45:15.346Z,8.30
2022-12-23T00:45:27.373Z,8.20
2022-12-23T00:45:39.399Z,8.98
2022-12-23T00:45:51.381Z,8.65
2022-12-23T00:46:03.402Z,8.88
2022-12-23T00:46:15.555Z,10.05
2022-12-23T00:46:28.312Z,9.32
2022-12-23T00:46:40.532Z,7.50
2022-12-23T00:46:52.538Z,7.88
2022-12-23T00:47:04.563Z,7.32
2022-12-23T00:47:36.485Z,6.40
2022-12-23T00:48:07.020Z,7.75
2022-12-23T00:48:37.460Z,7.07
2022-12-23T00:49:07.688Z,7.95
2022-12-23T00:49:39.626Z,6.90
2022-12-23T00:49:51.536Z,9.18
2022-12-23T00:50:03.687Z,11.32
2022-12-23T00:50:15.756Z,9.90
2022-12-23T00:50:30.138Z,9.30
2022-12-23T00:50:42.088Z,10.30
2022-12-23T00:50:54.031Z,12.25
2022-12-23T00:51:06.111Z,11.00
2022-12-23T00:51:18.020Z,10.10
2022-12-23T00:51:30.068Z,11.13
2022-12-23T00:51:41.989Z,11.63
2022-12-23T00:51:53.948Z,11.48
2022-12-23T00:52:08.258Z,14.00
2022-12-23T00:52:20.184Z,12.75
2022-12-23T00:52:32.111Z,10.85
2022-12-23T00:52:44.034Z,10.68
2022-12-23T00:52:56.863Z,11.23
2022-12-23T00:53:08.811Z,9.10
2022-12-23T00:53:21.115Z,6.60
2022-12-23T00:53:33.071Z,5.55
2022-12-23T00:53:45.004Z,5.43
2022-12-23T00:53:57.110Z,7.15
2022-12-23T00:54:09.137Z,7.95
2022-12-23T00:54:21.207Z,6.90
2022-12-23T00:54:33.227Z,5.43
2022-12-23T00:54:45.212Z,4.65
2022-12-23T00:54:57.181Z,3.60
2022-12-23T00:55:09.341Z,4.53
2022-12-23T00:55:21.578Z,6.65
2022-12-23T00:55:33.541Z,7.13
2022-12-23T00:55:47.743Z,8.57
2022-12-23T00:55:59.707Z,9.32
2022-12-23T00:56:11.608Z,8.50
2022-12-23T00:56:23.615Z,6.60
2022-12-23T00:56:35.694Z,5.95
2022-12-23T00:56:47.635Z,5.35
2022-12-23T00:57:00.358Z,5.45
2022-12-23T00:57:12.373Z,4.18
2022-12-23T00:57:24.267Z,3.63
2022-12-23T00:57:36.143Z,3.22
2022-12-23T00:57:48.190Z,3.15
2022-12-23T00:58:00.101Z,3.35
2022-12-23T00:58:12.118Z,3.25
2022-12-23T00:58:24.068Z,3.15
2022-12-23T00:58:36.040Z,2.88
2022-12-23T00:58:47.989Z,3.22
2022-12-23T00:59:00.371Z,4.50
2022-12-23T00:59:12.671Z,6.43
2022-12-23T00:59:24.814Z,8.45
2022-12-23T00:59:36.772Z,7.30
2022-12-23T00:59:48.750Z,6.55
2022-12-23T01:00:00.637Z,5.57
2022-12-23T01:00:13.223Z,8.30
2022-12-23T01:00:45.241Z,10.93
2022-12-23T01:01:15.652Z,8.10
2022-12-23T01:01:46.305Z,9.70
2022-12-23T01:02:17.216Z,9.05
2022-12-23T01:02:47.940Z,7.47
2022-12-23T01:03:18.506Z,10.70
2022-12-23T01:03:49.385Z,8.98
2022-12-23T01:04:21.398Z,2.83
2022-12-23T01:04:52.285Z,3.65
2022-12-23T01:05:23.238Z,3.72
2022-12-23T01:05:38.907Z,4.43
2022-12-23T01:05:50.831Z,4.30
2022-12-23T01:06:03.373Z,4.93
2022-12-23T01:06:16.096Z,6.45
2022-12-23T01:06:28.191Z,6.53
2022-12-23T01:06:40.111Z,5.05
2022-12-23T01:06:52.107Z,3.80
2022-12-23T01:07:05.165Z,3.08
2022-12-23T01:07:17.078Z,3.25
2022-12-23T01:07:29.022Z,7.13
2022-12-23T01:07:42.409Z,8.07
2022-12-23T01:07:55.969Z,5.82
2022-12-23T01:08:12.123Z,4.95
2022-12-23T01:08:24.173Z,4.40
2022-12-23T01:08:36.830Z,4.78
2022-12-23T01:08:48.717Z,5.13
2022-12-23T01:09:00.644Z,4.82
2022-12-23T01:09:12.616Z,5.28
2022-12-23T01:09:25.095Z,4.10
2022-12-23T01:09:37.075Z,3.35
2022-12-23T01:09:49.035Z,3.50
2022-12-23T01:10:01.005Z,3.33
2022-12-23T01:10:13.103Z,2.65
2022-12-23T01:10:25.069Z,2.47
2022-12-23T01:10:40.973Z,2.95
2022-12-23T01:10:53.284Z,4.10
2022-12-23T01:11:07.969Z,2.90
2022-12-23T01:11:19.905Z,1.65
2022-12-23T01:11:31.904Z,2.08
2022-12-23T01:11:43.906Z,2.22
2022-12-23T01:11:55.891Z,4.88
2022-12-23T01:12:07.920Z,5.43
2022-12-23T01:12:19.929Z,3.83
2022-12-23T01:12:31.916Z,2.72
2022-12-23T01:12:43.850Z,1.05
2022-12-23T01:12:55.792Z,3.65
2022-12-23T01:13:07.946Z,4.40
2022-12-23T01:13:20.286Z,2.90
2022-12-23T01:13:33.045Z,1.50
2022-12-23T01:13:45.092Z,2.50
2022-12-23T01:13:58.402Z,3.50
2022-12-23T01:14:11.561Z,3.58
2022-12-23T01:14:24.192Z,2.75
2022-12-23T01:14:36.523Z,2.20
2022-12-23T01:14:48.783Z,1.60
2022-12-23T01:15:00.785Z,1.88
2022-12-23T01:15:12.717Z,2.58
2022-12-23T01:15:24.711Z,2.70
2022-12-23T01:15:36.650Z,2.25
2022-12-23T01:15:48.628Z,2.20
2022-12-23T01:16:16.741Z,3.40
2022-12-23T01:16:29.742Z,3.28
2022-12-23T01:16:42.013Z,3.20
2022-12-23T01:16:54.101Z,2.80
2022-12-23T01:17:07.647Z,3.40
2022-12-23T01:17:19.714Z,2.53
2022-12-23T01:17:31.714Z,4.22
2022-12-23T01:17:43.636Z,4.40
2022-12-23T01:17:55.911Z,3.65
2022-12-23T01:18:08.101Z,3.22
2022-12-23T01:18:20.006Z,3.15
2022-12-23T01:18:34.231Z,2.53
2022-12-23T01:18:46.226Z,1.77
2022-12-23T01:18:58.709Z,1.48
2022-12-23T01:19:11.919Z,3.00
2022-12-23T01:19:24.005Z,2.67
2022-12-23T01:19:36.365Z,2.50
2022-12-23T01:19:48.307Z,3.15
2022-12-23T01:20:00.285Z,3.42
2022-12-23T01:20:12.771Z,3.10
2022-12-23T01:20:25.075Z,4.68
2022-12-23T01:20:40.942Z,5.63
2022-12-23T01:20:52.850Z,4.25
2022-12-23T01:21:08.020Z,3.10
2022-12-23T01:21:20.071Z,2.33
2022-12-23T01:21:32.438Z,2.47
2022-12-23T01:21:44.440Z,2.70
2022-12-23T01:21:56.405Z,3.33
2022-12-23T01:22:08.394Z,4.82
2022-12-23T01:22:20.422Z,8.90
2022-12-23T01:22:32.344Z,8.00
2022-12-23T01:22:44.314Z,4.68
2022-12-23T01:22:56.289Z,3.10
2022-12-23T01:23:08.332Z,2.63
2022-12-23T01:23:20.454Z,1.33
2022-12-23T01:23:33.495Z,1.55
2022-12-23T01:23:45.541Z,1.45
2022-12-23T01:23:57.575Z,1.85
2022-12-23T01:24:09.658Z,2.45
2022-12-23T01:24:21.703Z,3.35
2022-12-23T01:24:33.886Z,4.22
2022-12-23T01:24:45.921Z,2.65
2022-12-23T01:24:57.812Z,2.40
2022-12-23T01:25:09.971Z,2.45
2022-12-23T01:25:21.896Z,3.15
2022-12-23T01:25:33.888Z,2.20
2022-12-23T01:25:45.965Z,0.98
2022-12-23T01:25:59.535Z,1.40
2022-12-23T01:26:11.706Z,2.15
2022-12-23T01:26:23.969Z,3.40
2022-12-23T01:26:35.960Z,4.10
2022-12-23T01:26:48.033Z,2.22
2022-12-23T01:27:00.284Z,1.05
2022-12-23T01:27:12.391Z,1.00
2022-12-23T01:27:24.398Z,1.83
2022-12-23T01:27:36.349Z,2.33
2022-12-23T01:27:48.374Z,2.15
2022-12-23T01:28:00.439Z,2.53
2022-12-23T01:28:12.572Z,2.33
2022-12-23T01:28:25.128Z,1.80
2022-12-23T01:28:37.196Z,1.33
2022-12-23T01:28:53.433Z,1.15
2022-12-23T01:29:05.450Z,1.50
2022-12-23T01:29:17.417Z,1.92
2022-12-23T01:29:29.792Z,2.70
2022-12-23T01:29:41.715Z,2.72
2022-12-23T01:29:53.681Z,3.15
2022-12-23T01:30:06.439Z,3.22
2022-12-23T01:30:18.455Z,2.22
2022-12-23T01:30:30.427Z,2.30
2022-12-23T01:30:42.395Z,2.28
2022-12-23T01:30:54.314Z,2.08
2022-12-23T01:31:10.020Z,2.35
2022-12-23T01:31:23.254Z,2.13
2022-12-23T01:31:35.234Z,2.05
2022-12-23T01:31:47.614Z,2.30
2022-12-23T01:31:59.792Z,2.28
2022-12-23T01:32:11.962Z,1.60
2022-12-23T01:32:23.956Z,1.35
2022-12-23T01:32:36.072Z,1.23
2022-12-23T01:32:48.096Z,2.97
2022-12-23T01:33:00.341Z,3.63
2022-12-23T01:33:12.245Z,3.22
2022-12-23T01:33:24.314Z,3.08
2022-12-23T01:33:36.273Z,2.72
2022-12-23T01:33:48.319Z,2.05
2022-12-23T01:34:00.307Z,2.55
2022-12-23T01:34:12.475Z,3.42
2022-12-23T01:34:24.450Z,4.63
2022-12-23T01:34:37.656Z,3.85
2022-12-23T01:34:49.812Z,3.30
2022-12-23T01:35:01.742Z,2.83
2022-12-23T01:35:13.852Z,3.05
2022-12-23T01:35:25.824Z,2.08
2022-12-23T01:35:37.719Z,2.10
2022-12-23T01:35:49.662Z,2.33
2022-12-23T01:36:07.066Z,2.03
2022-12-23T01:36:19.403Z,2.38
2022-12-23T01:36:31.380Z,2.30
2022-12-23T01:36:43.494Z,2.17
2022-12-23T01:36:55.458Z,2.10
2022-12-23T01:37:07.491Z,3.08
2022-12-23T01:37:19.405Z,2.55
2022-12-23T01:37:31.488Z,2.75
2022-12-23T01:37:43.449Z,1.75
2022-12-23T01:37:55.373Z,1.27
2022-12-23T01:38:07.345Z,0.90
2022-12-23T01:38:19.334Z,1.23
2022-12-23T01:38:31.435Z,1.58
2022-12-23T01:38:43.426Z,2.08
2022-12-23T01:38:56.421Z,2.30
2022-12-23T01:39:08.356Z,2.38
2022-12-23T01:39:20.328Z,2.78
2022-12-23T01:39:32.315Z,3.97
2022-12-23T01:39:44.335Z,4.70
2022-12-23T01:39:56.292Z,2.97
2022-12-23T01:40:09.328Z,2.63
2022-12-23T01:40:21.281Z,3.58
2022-12-23T01:40:37.515Z,3.75
2022-12-23T01:40:50.772Z,3.72
2022-12-23T01:41:02.732Z,2.90
2022-12-23T01:41:45.711Z,2.90
2022-12-23T01:42:16.141Z,1.60
2022-12-23T01:42:47.531Z,2.20
2022-12-23T01:42:59.575Z,1.05
2022-12-23T01:43:16.843Z,1.38
2022-12-23T01:43:51.940Z,1.00
2022-12-23T01:44:42.745Z,2.10
2022-12-23T01:45:04.428Z,1.60
2022-12-23T01:45:19.093Z,1.30
2022-12-23T01:45:32.697Z,1.35
2022-12-23T01:45:45.004Z,2.08
2022-12-23T01:45:57.077Z,3.50
2022-12-23T01:46:09.023Z,2.55
2022-12-23T01:46:21.083Z,1.83
2022-12-23T01:46:33.131Z,1.45
2022-12-23T01:46:45.083Z,1.35
2022-12-23T01:46:57.018Z,1.60
2022-12-23T01:47:14.753Z,1.00
2022-12-23T01:47:41.590Z,1.40
2022-12-23T01:47:56.410Z,1.73
2022-12-23T01:48:22.748Z,1.77
2022-12-23T01:48:34.883Z,1.15
2022-12-23T01:48:50.830Z,0.63
2022-12-23T01:49:02.754Z,0.77
2022-12-23T01:49:14.730Z,0.90
2022-12-23T01:49:26.850Z,0.98
2022-12-23T01:49:40.008Z,1.00
2022-12-23T01:49:57.408Z,0.95
2022-12-23T01:50:23.571Z,0.63
2022-12-23T01:50:40.277Z,2.05
2022-12-23T01:51:28.557Z,2.00
2022-12-23T01:51:40.503Z,1.13
2022-12-23T01:51:52.461Z,0.90
2022-12-23T01:52:04.457Z,0.82
2022-12-23T01:52:16.728Z,1.13
2022-12-23T01:52:29.867Z,1.15
2022-12-23T01:52:55.881Z,1.40
2022-12-23T01:53:16.848Z,0.75
2022-12-23T01:53:33.086Z,1.10
2022-12-23T01:53:48.908Z,1.73
2022-12-23T01:54:02.115Z,2.20
2022-12-23T01:54:14.057Z,1.63
2022-12-23T01:54:27.760Z,0.70
2022-12-23T01:54:41.675Z,0.60
2022-12-23T01:54:55.097Z,2.10
2022-12-23T01:55:07.796Z,3.38
2022-12-23T01:55:25.534Z,2.60
2022-12-23T01:56:00.448Z,1.13
2022-12-23T01:56:36.029Z,1.42
2022-12-23T01:56:48.449Z,1.10
2022-12-23T01:57:00.421Z,0.77
2022-12-23T01:57:12.769Z,1.33
2022-12-23T01:57:24.967Z,1.30
2022-12-23T01:57:41.815Z,1.67
2022-12-23T01:57:58.947Z,1.65
2022-12-23T01:58:14.615Z,1.10
2022-12-23T01:58:32.128Z,0.70
2022-12-23T01:58:58.131Z,1.00
2022-12-23T01:59:34.088Z,0.47
2022-12-23T02:00:04.504Z,0.60
2022-12-23T02:00:35.346Z,1.58
2022-12-23T02:01:05.635Z,2.63
2022-12-23T02:01:36.616Z,2.53
2022-12-23T02:02:07.376Z,1.00
2022-12-23T02:02:40.145Z,1.10
2022-12-23T02:03:11.262Z,1.50
2022-12-23T02:03:41.760Z,0.55
2022-12-23T02:03:59.210Z,1.38
2022-12-23T02:04:15.816Z,1.38
2022-12-23T02:04:27.771Z,0.85
2022-12-23T02:04:39.812Z,0.50
2022-12-23T02:04:52.820Z,0.90
2022-12-23T02:05:05.074Z,1.17
2022-12-23T02:05:17.449Z,1.30
2022-12-23T02:05:29.645Z,1.17
2022-12-23T02:05:44.720Z,1.20
2022-12-23T02:06:18.304Z,2.17
2022-12-23T02:06:57.628Z,0.85
2022-12-23T02:07:29.881Z,2.85
2022-12-23T02:08:01.668Z,3.15
2022-12-23T02:08:35.047Z,3.35
2022-12-23T02:09:05.410Z,1.02
2022-12-23T02:09:19.073Z,1.27
2022-12-23T02:09:33.810Z,2.10
2022-12-23T02:09:45.819Z,1.67
2022-12-23T02:09:58.396Z,1.23
2022-12-23T02:10:10.923Z,1.83
2022-12-23T02:10:30.944Z,1.88
2022-12-23T02:11:08.844Z,1.27
2022-12-23T02:11:43.618Z,2.22
2022-12-23T02:12:23.930Z,2.42
2022-12-23T02:12:45.747Z,1.65
2022-12-23T02:13:19.862Z,0.60
2022-12-23T02:14:03.070Z,0.80
2022-12-23T02:15:02.791Z,1.52
2022-12-23T02:16:04.130Z,2.28
2022-12-23T02:16:21.284Z,3.70
2022-12-23T02:16:40.277Z,2.22
2022-12-23T02:17:04.477Z,1.67
2022-12-23T02:17:25.773Z,1.73
2022-12-23T02:17:55.692Z,2.13
2022-12-23T02:18:28.624Z,1.75
2022-12-23T02:19:05.364Z,2.03
2022-12-23T02:19:45.504Z,1.42
2022-12-23T02:20:28.151Z,2.60
2022-12-23T02:21:01.505Z,4.93
2022-12-23T02:21:13.426Z,1.50
2022-12-23T02:21:58.509Z,1.58
2022-12-23T02:22:36.593Z,0.95
2022-12-23T02:22:54.173Z,1.25
2022-12-23T02:23:11.781Z,1.10
2022-12-23T02:23:52.560Z,1.17
2022-12-23T02:24:25.556Z,4.70
2022-12-23T02:25:07.222Z,3.50
2022-12-23T02:25:46.991Z,2.40
2022-12-23T02:26:21.773Z,1.38
2022-12-23T02:27:01.663Z,1.50
2022-12-23T02:27:17.109Z,1.75
2022-12-23T02:27:32.515Z,2.75
2022-12-23T02:27:54.155Z,2.70
2022-12-23T02:28:21.119Z,1.92
2022-12-23T02:28:57.698Z,1.27
2022-12-23T02:29:34.739Z,1.65
2022-12-23T02:30:19.230Z,0.75
2022-12-23T02:30:47.747Z,1.10
2022-12-23T02:31:20.262Z,1.30
2022-12-23T02:31:51.193Z,1.40
2022-12-23T02:32:14.467Z,1.50
2022-12-23T02:32:42.896Z,1.75
2022-12-23T02:33:06.687Z,0.75
2022-12-23T02:33:30.533Z,1.45
2022-12-23T02:34:08.884Z,2.80
2022-12-23T02:34:34.547Z,2.17
2022-12-23T02:35:13.738Z,1.50
2022-12-23T02:35:57.948Z,2.75
2022-12-23T02:36:12.604Z,1.23
2022-12-23T02:36:27.328Z,1.15
2022-12-23T02:36:52.988Z,1.15
2022-12-23T02:37:27.687Z,4.43
2022-12-23T02:38:00.764Z,2.20
2022-12-23T02:38:21.482Z,1.73
2022-12-23T02:38:48.215Z,1.63
2022-12-23T02:39:21.626Z,0.70
2022-12-23T02:39:46.413Z,1.60
2022-12-23T02:40:27.297Z,1.52
2022-12-23T02:40:45.077Z,1.23
2022-12-23T02:41:06.746Z,2.35
2022-12-23T02:41:32.109Z,2.35
2022-12-23T02:42:30.502Z,3.10
2022-12-23T02:42:53.968Z,6.85
2022-12-23T02:43:34.966Z,6.00
2022-12-23T02:43:51.676Z,3.88
2022-12-23T02:44:13.496Z,5.70
2022-12-23T02:44:41.362Z,6.07
2022-12-23T02:45:10.092Z,4.13
2022-12-23T02:45:33.042Z,9.52
2022-12-23T02:46:07.544Z,11.98
2022-12-23T02:46:25.918Z,6.25
2022-12-23T02:46:52.942Z,10.00
2022-12-23T02:47:11.225Z,9.13
2022-12-23T02:47:28.918Z,2.30
2022-12-23T02:47:48.227Z,1.80
2022-12-23T02:48:07.088Z,5.43
2022-12-23T02:48:24.237Z,8.63
2022-12-23T02:49:01.201Z,12.90
2022-12-23T02:49:18.871Z,5.18
2022-12-23T02:49:42.499Z,5.35
2022-12-23T02:49:58.894Z,10.43
2022-12-23T02:50:17.200Z,15.75
2022-12-23T02:50:36.599Z,15.43
2022-12-23T02:50:51.199Z,11.18
2022-12-23T02:51:05.868Z,11.83
2022-12-23T02:51:22.284Z,11.05
2022-12-23T02:51:38.844Z,11.40
2022-12-23T02:51:56.045Z,12.65
2022-12-23T02:52:17.253Z,10.88
2022-12-23T02:52:32.570Z,6.57
2022-12-23T02:52:48.032Z,8.68
2022-12-23T02:53:04.623Z,8.27
2022-12-23T02:53:27.367Z,8.88
2022-12-23T02:54:02.359Z,8.52
2022-12-23T02:54:22.548Z,2.47
2022-12-23T02:54:39.894Z,3.55
2022-12-23T02:54:57.761Z,4.15
2022-12-23T02:55:14.440Z,2.10
2022-12-23T02:55:34.664Z,2.15
2022-12-23T02:55:49.703Z,2.08
2022-12-23T02:56:05.695Z,1.58
2022-12-23T02:56:21.620Z,1.95
2022-12-23T02:56:36.930Z,2.70
2022-12-23T02:56:51.021Z,2.83
2022-12-23T02:57:06.778Z,2.90
2022-12-23T02:57:23.709Z,2.08
2022-12-23T02:57:44.694Z,0.93
2022-12-23T02:58:00.748Z,2.83
2022-12-23T02:58:17.435Z,3.90
2022-12-23T02:58:34.958Z,3.20
2022-12-23T02:59:02.745Z,3.40
2022-12-23T02:59:19.625Z,2.85
2022-12-23T02:59:41.164Z,3.33
2022-12-23T02:59:54.781Z,2.00
2022-12-23T03:00:07.691Z,1.38
2022-12-23T03:00:20.826Z,1.27
2022-12-23T03:00:33.774Z,1.20
2022-12-23T03:00:48.269Z,1.63
2022-12-23T03:01:01.935Z,1.10
2022-12-23T03:01:16.058Z,0.90
2022-12-23T03:01:31.757Z,1.45
2022-12-23T03:01:44.946Z,2.58
2022-12-23T03:01:58.527Z,2.88
2022-12-23T03:02:10.772Z,1.67
2022-12-23T03:02:23.053Z,1.20
2022-12-23T03:02:38.419Z,1.70
2022-12-23T03:02:50.721Z,2.50
2022-12-23T03:03:02.947Z,2.50
2022-12-23T03:03:17.225Z,1.83
2022-12-23T03:03:29.478Z,1.63
2022-12-23T03:03:42.453Z,0.80
2022-12-23T03:03:54.515Z,0.90
2022-12-23T03:04:06.857Z,1.25
2022-12-23T03:04:19.220Z,1.98
2022-12-23T03:04:31.487Z,1.98
2022-12-23T03:04:43.447Z,2.70
2022-12-23T03:04:55.460Z,2.40
2022-12-23T03:05:24.523Z,1.60
2022-12-23T03:05:40.588Z,2.20
2022-12-23T03:05:54.343Z,2.10
2022-12-23T03:06:19.861Z,2.13
2022-12-23T03:06:44.480Z,2.67
2022-12-23T03:07:02.822Z,2.47
2022-12-23T03:07:31.393Z,3.00
2022-12-23T03:07:43.752Z,1.08
2022-12-23T03:08:02.517Z,2.10
2022-12-23T03:08:25.663Z,3.72
2022-12-23T03:08:43.939Z,1.95
2022-12-23T03:08:59.378Z,1.63
2022-12-23T03:09:22.967Z,1.85
2022-12-23T03:09:56.543Z,2.42
2022-12-23T03:10:12.033Z,1.60
2022-12-23T03:10:29.995Z,2.50
2022-12-23T03:11:03.187Z,2.25
2022-12-23T03:11:17.190Z,3.03
2022-12-23T03:11:59.338Z,3.30
2022-12-23T03:12:39.210Z,1.13
2022-12-23T03:13:18.296Z,3.25
2022-12-23T03:13:48.550Z,1.90
2022-12-23T03:14:26.569Z,2.85
2022-12-23T03:15:16.507Z,1.13
2022-12-23T03:15:41.303Z,0.90
2022-12-23T03:15:56.847Z,1.58
2022-12-23T03:16:17.951Z,2.67
2022-12-23T03:16:42.473Z,4.22
2022-12-23T03:17:28.208Z,2.38
2022-12-23T03:17:44.331Z,0.98
2022-12-23T03:18:06.780Z,1.23
2022-12-23T03:18:27.032Z,1.50
2022-12-23T03:19:03.842Z,2.40
2022-12-23T03:19:34.441Z,2.38
2022-12-23T03:19:57.633Z,1.60
2022-12-23T03:20:23.213Z,1.95
2022-12-23T03:20:54.174Z,2.20
2022-12-23T03:21:09.612Z,0.93
2022-12-23T03:21:46.674Z,3.15
2022-12-23T03:22:29.129Z,3.50
2022-12-23T03:22:48.335Z,2.25
2022-12-23T03:23:18.906Z,1.30
2022-12-23T03:23:39.300Z,1.33
2022-12-23T03:24:01.878Z,2.92
2022-12-23T03:24:36.618Z,1.38
2022-12-23T03:25:03.943Z,1.50
2022-12-23T03:25:23.020Z,0.70
2022-12-23T03:25:47.941Z,0.75
2022-12-23T03:26:03.486Z,1.48
2022-12-23T03:26:38.987Z,1.83
2022-12-23T03:27:33.400Z,1.48
2022-12-23T03:27:55.890Z,1.70
2022-12-23T03:28:20.519Z,1.98
2022-12-23T03:29:06.740Z,3.10
2022-12-23T03:29:36.578Z,2.13
2022-12-23T03:30:04.776Z,2.58
2022-12-23T03:30:20.327Z,1.98
2022-12-23T03:30:36.836Z,2.08
2022-12-23T03:30:54.040Z,1.75
2022-12-23T03:31:10.780Z,2.75
2022-12-23T03:31:27.222Z,1.88
2022-12-23T03:31:41.324Z,1.23
2022-12-23T03:31:56.482Z,2.10
2022-12-23T03:32:12.741Z,1.90
2022-12-23T03:32:28.245Z,1.17
2022-12-23T03:32:48.512Z,1.23
2022-12-23T03:33:12.320Z,2.70
2022-12-23T03:33:29.778Z,1.02
2022-12-23T03:33:47.049Z,1.77
2022-12-23T03:34:21.357Z,1.30
2022-12-23T03:34:39.315Z,1.15
2022-12-23T03:34:54.978Z,0.95
2022-12-23T03:35:10.513Z,1.00
2022-12-23T03:35:36.079Z,1.00
2022-12-23T03:36:03.437Z,1.90
2022-12-23T03:36:20.300Z,1.17
2022-12-23T03:36:38.191Z,2.42
2022-12-23T03:36:57.207Z,2.67
2022-12-23T03:37:12.909Z,2.00
2022-12-23T03:37:28.489Z,1.20
2022-12-23T03:37:47.163Z,1.00
2022-12-23T03:38:02.589Z,2.60
2022-12-23T03:38:18.382Z,2.25
2022-12-23T03:38:33.440Z,2.08
2022-12-23T03:38:45.931Z,2.75
2022-12-23T03:38:59.005Z,2.88
2022-12-23T03:39:16.170Z,2.63
2022-12-23T03:39:36.657Z,2.45
2022-12-23T03:39:54.573Z,2.17
2022-12-23T03:40:32.721Z,1.50
2022-12-23T03:40:49.629Z,1.20
2022-12-23T03:41:07.718Z,1.30
2022-12-23T03:41:25.115Z,1.25
2022-12-23T03:41:42.620Z,1.80
2022-12-23T03:42:02.048Z,1.50
2022-12-23T03:42:20.935Z,0.70
2022-12-23T03:42:36.796Z,0.90
2022-12-23T03:42:55.442Z,1.00
2022-12-23T03:43:13.177Z,1.77
2022-12-23T03:43:30.519Z,1.60
2022-12-23T03:44:06.501Z,1.23
2022-12-23T03:44:26.323Z,1.77
2022-12-23T03:45:03.738Z,1.25
2022-12-23T03:45:59.198Z,1.65
2022-12-23T03:46:22.344Z,1.35
2022-12-23T03:46:42.445Z,1.73
2022-12-23T03:47:09.713Z,1.10
2022-12-23T03:47:35.871Z,3.00
2022-12-23T03:47:52.509Z,1.77
2022-12-23T03:48:16.566Z,1.95
2022-12-23T03:48:43.456Z,3.17
2022-12-23T03:49:04.056Z,1.10
2022-12-23T03:49:27.728Z,1.60
2022-12-23T03:49:44.357Z,2.45
2022-12-23T03:50:24.971Z,1.75
2022-12-23T03:50:39.425Z,2.30
2022-12-23T03:50:57.889Z,3.90
2022-12-23T03:51:18.313Z,2.33
2022-12-23T03:51:37.848Z,1.80
2022-12-23T03:51:59.648Z,1.77
2022-12-23T03:52:21.561Z,1.52
2022-12-23T03:52:40.420Z,1.20
2022-12-23T03:53:00.742Z,0.90
2022-12-23T03:53:19.786Z,1.38
2022-12-23T03:53:46.830Z,2.30
2022-12-23T03:54:03.343Z,1.20
2022-12-23T03:54:21.292Z,1.50
2022-12-23T03:54:40.491Z,2.05
2022-12-23T03:54:55.376Z,1.95
2022-12-23T03:55:14.260Z,2.40
2022-12-23T03:55:37.852Z,1.60
2022-12-23T03:55:58.163Z,1.60
2022-12-23T03:56:14.959Z,1.00
2022-12-23T03:56:38.556Z,1.50
2022-12-23T03:57:01.374Z,1.75
2022-12-23T03:57:14.792Z,2.75
2022-12-23T03:57:34.722Z,1.92
2022-12-23T03:58:01.809Z,1.00
2022-12-23T03:58:28.493Z,1.02
2022-12-23T03:58:52.747Z,1.40
2022-12-23T03:59:15.148Z,2.10